createdAt,value
2019-04-04T00:03:34.988Z,6.65
2019-04-04T00:08:40.128Z,6.52
2019-04-04T00:13:45.370Z,6.69
2019-04-04T00:18:50.593Z,6.61
2019-04-04T00:23:55.860Z,6.66
2019-04-04T00:29:01.477Z,6.82
2019-04-04T00:34:07.311Z,6.83
2019-04-04T00:39:12.636Z,6.73
2019-04-04T00:44:17.922Z,6.76
2019-04-04T00:49:23.196Z,6.72
2019-04-04T00:54:28.805Z,6.80
2019-04-04T00:59:34.977Z,6.66
2019-04-04T01:04:41.213Z,6.57
2019-04-04T01:09:47.901Z,6.46
2019-04-04T01:14:54.855Z,6.37
2019-04-04T01:20:00.090Z,6.22
2019-04-04T01:25:05.708Z,6.12
2019-04-04T01:30:12.517Z,5.95
2019-04-04T01:35:17.867Z,5.63
2019-04-04T01:40:24.408Z,5.65
2019-04-04T01:45:29.681Z,5.57
2019-04-04T01:50:35.158Z,5.17
2019-04-04T01:55:40.428Z,5.10
2019-04-04T02:00:47.825Z,5.18
2019-04-04T02:05:53.427Z,5.30
2019-04-04T02:10:58.717Z,5.24
2019-04-04T02:16:03.945Z,5.37
2019-04-04T02:21:09.183Z,5.28
2019-04-04T02:26:14.980Z,5.07
2019-04-04T02:31:21.727Z,5.06
2019-04-04T02:36:27.297Z,4.92
2019-04-04T02:41:32.450Z,5.23
2019-04-04T02:46:38.264Z,4.85
2019-04-04T02:51:43.496Z,4.78
2019-04-04T02:56:49.393Z,4.51
2019-04-04T03:01:55.082Z,4.43
2019-04-04T03:07:00.516Z,4.43
2019-04-04T03:12:05.691Z,4.44
2019-04-04T03:17:10.959Z,4.48
2019-04-04T03:22:16.459Z,4.47
2019-04-04T03:27:25.652Z,4.46
2019-04-04T03:32:28.971Z,4.33
2019-04-04T03:37:34.829Z,4.39
2019-04-04T03:42:44.012Z,4.35
2019-04-04T03:47:47.281Z,4.26
2019-04-04T03:52:52.445Z,4.18
2019-04-04T03:57:58.217Z,4.28
2019-04-04T04:03:03.400Z,4.21
2019-04-04T04:08:08.664Z,4.16
2019-04-04T04:13:17.333Z,4.05
2019-04-04T04:18:21.832Z,4.02
2019-04-04T04:23:27.503Z,3.88
2019-04-04T04:28:33.016Z,3.80
2019-04-04T04:33:38.288Z,4.01
2019-04-04T04:38:43.441Z,4.15
2019-04-04T04:43:48.623Z,4.25
2019-04-04T04:48:54.093Z,4.33
2019-04-04T04:53:59.318Z,4.45
2019-04-04T04:59:04.764Z,4.54
2019-04-04T05:04:11.052Z,4.60
2019-04-04T05:09:16.237Z,4.76
2019-04-04T05:14:22.438Z,4.92
2019-04-04T05:19:27.656Z,5.04
2019-04-04T05:24:33.146Z,5.06
2019-04-04T05:29:38.463Z,5.14
2019-04-04T05:34:44.688Z,5.18
2019-04-04T05:39:51.452Z,5.24
2019-04-04T05:44:57.750Z,5.22
2019-04-04T05:50:03.521Z,5.29
2019-04-04T05:55:10.858Z,5.27
2019-04-04T06:00:16.733Z,5.16
2019-04-04T06:05:22.920Z,5.13
2019-04-04T06:10:28.190Z,5.18
2019-04-04T06:15:33.811Z,5.23
2019-04-04T06:20:39.056Z,5.21
2019-04-04T06:25:44.621Z,5.31
2019-04-04T06:30:53.624Z,5.33
2019-04-04T06:35:57.153Z,5.37
2019-04-04T06:41:02.637Z,5.46
2019-04-04T06:46:07.831Z,5.55
2019-04-04T06:51:14.237Z,5.69
2019-04-04T06:56:20.037Z,5.95
2019-04-04T07:01:25.701Z,6.25
2019-04-04T07:06:30.959Z,6.49
2019-04-04T07:11:36.996Z,6.75
2019-04-04T07:16:42.268Z,6.93
2019-04-04T07:21:49.172Z,7.14
2019-04-04T07:26:54.849Z,7.23
2019-04-04T07:32:00.120Z,7.17
2019-04-04T07:37:06.126Z,7.08
2019-04-04T07:42:11.407Z,7.29
2019-04-04T07:47:17.086Z,7.34
2019-04-04T07:52:23.780Z,7.38
2019-04-04T07:57:30.288Z,7.27
2019-04-04T08:02:36.817Z,7.30
2019-04-04T08:07:42.188Z,7.32
2019-04-04T08:12:47.433Z,7.43
2019-04-04T08:17:53.191Z,7.70
2019-04-04T08:22:58.883Z,7.95
2019-04-04T08:28:04.156Z,7.96
2019-04-04T08:33:10.157Z,8.02
2019-04-04T08:38:15.910Z,7.69
2019-04-04T08:43:21.104Z,7.97
2019-04-04T08:48:26.367Z,8.12
2019-04-04T08:53:39.780Z,8.27
2019-04-04T08:58:39.086Z,8.30
2019-04-04T09:03:44.358Z,8.50
2019-04-04T09:08:49.553Z,8.59
2019-04-04T09:13:55.170Z,8.64
2019-04-04T09:19:01.418Z,8.68
2019-04-04T09:24:06.683Z,8.72
2019-04-04T09:29:11.944Z,9.08
2019-04-04T09:34:17.624Z,9.29
2019-04-04T09:39:22.899Z,9.62
2019-04-04T09:44:28.185Z,10.13
2019-04-04T09:49:33.640Z,9.85
2019-04-04T09:54:39.263Z,10.01
2019-04-04T09:59:44.559Z,10.53
2019-04-04T10:04:49.932Z,9.99
2019-04-04T10:09:55.538Z,10.05
2019-04-04T10:15:00.814Z,9.99
2019-04-04T10:20:07.231Z,9.84
2019-04-04T10:25:13.599Z,9.73
2019-04-04T10:30:19.201Z,9.81
2019-04-04T10:35:24.695Z,10.13
2019-04-04T10:40:30.098Z,10.30
2019-04-04T10:45:35.599Z,10.34
2019-04-04T10:50:40.916Z,10.30
2019-04-04T10:55:46.218Z,10.60
2019-04-04T11:00:51.562Z,10.99
2019-04-04T11:05:56.826Z,10.35
2019-04-04T11:11:02.286Z,10.32
2019-04-04T11:16:08.718Z,10.51
2019-04-04T11:21:14.112Z,10.42
2019-04-04T11:26:19.785Z,10.67
2019-04-04T11:31:25.168Z,10.99
2019-04-04T11:36:31.313Z,11.07
2019-04-04T11:41:36.697Z,11.69
2019-04-04T11:46:42.382Z,12.19
2019-04-04T11:51:48.050Z,12.31
2019-04-04T11:56:53.320Z,12.35
2019-04-04T12:01:58.802Z,12.54
2019-04-04T12:07:04.200Z,12.72
2019-04-04T12:12:09.780Z,12.89
2019-04-04T12:17:15.453Z,13.00
2019-04-04T12:22:20.756Z,12.72
2019-04-04T12:27:26.141Z,12.76
2019-04-04T12:32:32.029Z,13.06
2019-04-04T12:37:38.200Z,13.36
2019-04-04T12:42:44.529Z,14.04
2019-04-04T12:47:49.795Z,14.16
2019-04-04T12:52:55.084Z,14.25
2019-04-04T12:58:01.914Z,14.47
2019-04-04T13:03:07.218Z,14.63
2019-04-04T13:08:14.459Z,14.97
2019-04-04T13:13:19.731Z,14.70
2019-04-04T13:18:25.195Z,15.06
2019-04-04T13:23:30.560Z,14.91
2019-04-04T13:28:36.808Z,15.35
2019-04-04T13:33:42.079Z,15.28
2019-04-04T13:38:47.382Z,15.35
2019-04-04T13:43:54.224Z,15.39
2019-04-04T13:49:00.656Z,15.84
2019-04-04T13:54:05.968Z,16.06
2019-04-04T13:59:11.829Z,16.28
2019-04-04T14:04:20.074Z,16.55
2019-04-04T14:09:24.497Z,16.70
2019-04-04T14:14:29.798Z,16.99
2019-04-04T14:19:35.104Z,16.92
2019-04-04T14:24:40.849Z,16.77
2019-04-04T14:29:46.424Z,17.33
2019-04-04T14:34:52.021Z,17.08
2019-04-04T14:39:57.299Z,17.85
2019-04-04T14:45:02.997Z,18.05
2019-04-04T14:50:10.544Z,17.98
2019-04-04T14:55:17.956Z,18.29
2019-04-04T15:00:24.437Z,18.02
2019-04-04T15:05:29.998Z,18.15
2019-04-04T15:10:38.935Z,18.56
2019-04-04T15:16:11.723Z,18.20
2019-04-04T15:21:18.352Z,18.47
2019-04-04T15:26:24.346Z,17.69
2019-04-04T15:31:30.529Z,16.83
2019-04-04T15:36:36.281Z,16.28
2019-04-04T15:41:42.560Z,16.21
2019-04-04T15:46:48.645Z,15.77
2019-04-04T15:51:54.002Z,15.69
2019-04-04T15:56:59.270Z,15.84
2019-04-04T16:02:05.151Z,16.22
2019-04-04T16:07:10.600Z,16.12
2019-04-04T16:12:17.013Z,16.30
2019-04-04T16:17:22.324Z,15.99
2019-04-04T16:22:27.900Z,15.22
2019-04-04T16:27:33.290Z,14.73
2019-04-04T16:32:38.577Z,14.65
2019-04-04T16:37:44.201Z,14.78
2019-04-04T16:42:49.763Z,14.77
2019-04-04T16:47:56.289Z,14.77
2019-04-04T16:53:01.998Z,14.26
2019-04-04T16:58:07.497Z,13.74
2019-04-04T17:03:13.866Z,13.34
2019-04-04T17:08:19.525Z,12.83
2019-04-04T17:13:25.561Z,12.53
2019-04-04T17:18:30.863Z,12.26
2019-04-04T17:23:37.069Z,12.13
2019-04-04T17:28:42.429Z,11.89
2019-04-04T17:33:48.747Z,11.79
2019-04-04T17:38:55.397Z,11.75
2019-04-04T17:44:01.353Z,11.64
2019-04-04T17:49:06.682Z,11.44
2019-04-04T17:54:13.441Z,11.26
2019-04-04T17:59:18.871Z,11.19
2019-04-04T18:04:24.559Z,11.13
2019-04-04T18:09:31.906Z,10.95
2019-04-04T18:14:37.427Z,10.74
2019-04-04T18:19:42.864Z,10.46
2019-04-04T18:24:48.552Z,10.28
2019-04-04T18:29:53.874Z,10.16
2019-04-04T18:34:59.218Z,10.00
2019-04-04T18:40:05.916Z,9.89
2019-04-04T18:45:11.463Z,9.79
2019-04-04T18:50:18.063Z,9.79
2019-04-04T18:55:23.519Z,9.72
2019-04-04T19:00:29.903Z,9.59
2019-04-04T19:05:35.552Z,9.54
2019-04-04T19:10:40.939Z,9.51
2019-04-04T19:15:46.537Z,9.41
2019-04-04T19:20:51.957Z,9.33
2019-04-04T19:25:57.715Z,9.10
2019-04-04T19:31:03.941Z,8.82
2019-04-04T19:36:09.201Z,8.64
2019-04-04T19:41:14.949Z,8.51
2019-04-04T19:46:20.293Z,8.50
2019-04-04T19:51:27.702Z,8.44
2019-04-04T19:56:33.387Z,8.36
2019-04-04T20:01:38.767Z,8.28
2019-04-04T20:06:44.048Z,8.16
2019-04-04T20:11:49.875Z,7.96
2019-04-04T20:16:55.905Z,7.92
2019-04-04T20:22:01.172Z,7.91
2019-04-04T20:27:07.583Z,7.83
2019-04-04T20:32:12.910Z,7.80
2019-04-04T20:37:19.122Z,7.78
2019-04-04T20:42:24.783Z,7.73
2019-04-04T20:47:30.054Z,7.70
2019-04-04T20:52:36.457Z,7.64
2019-04-04T20:57:42.117Z,7.68
2019-04-04T21:02:47.339Z,7.67
2019-04-04T21:07:53.411Z,7.72
2019-04-04T21:12:59.126Z,7.70
2019-04-04T21:18:04.467Z,7.71
2019-04-04T21:23:09.648Z,7.70
2019-04-04T21:28:14.938Z,7.76
2019-04-04T21:33:20.975Z,7.69
2019-04-04T21:38:26.527Z,7.68
2019-04-04T21:43:31.801Z,7.65
2019-04-04T21:48:37.069Z,7.64
2019-04-04T21:53:42.687Z,7.61
2019-04-04T21:58:48.200Z,7.64
2019-04-04T22:03:53.473Z,7.64
2019-04-04T22:08:58.751Z,7.61
2019-04-04T22:14:04.050Z,7.61
2019-04-04T22:19:09.941Z,7.63
2019-04-04T22:24:15.438Z,7.65
2019-04-04T22:29:20.694Z,7.57
2019-04-04T22:34:25.950Z,7.60
2019-04-04T22:39:31.535Z,7.56
2019-04-04T22:44:36.715Z,7.53
2019-04-04T22:49:42.468Z,7.60
2019-04-04T22:54:48.067Z,7.62
2019-04-04T22:59:53.264Z,7.63
2019-04-04T23:04:58.893Z,7.62
2019-04-04T23:10:05.001Z,7.59
2019-04-04T23:15:11.308Z,7.58
2019-04-04T23:20:16.494Z,7.63
2019-04-04T23:25:21.763Z,7.65
2019-04-04T23:30:27.227Z,7.61
2019-04-04T23:35:32.420Z,7.57
2019-04-04T23:40:38.182Z,7.58
2019-04-04T23:45:43.416Z,7.55
2019-04-04T23:50:49.038Z,7.55
2019-04-04T23:55:54.311Z,7.58
